Time;durP1;ratioP1;P1;durP2;ratioP2;P2;SDS_P1;SDS_P2;PMS_P1;PMS_P2;Temp;Humidity;BMP_temperature;BMP_pressure;BME280_temperature;BME280_humidity;BME280_pressure;Samples;Min_cycle;Max_cycle;Signal;HPM_P1;HPM_P2
2022/04/01 00:04:13;;;;;;;;;;;;;;;;;;10370698;28;19956;-45
2022/04/01 00:09:14;;;;;;;;;;;;;;;;;;10370974;28;19964;-44
2022/04/01 00:14:15;;;;;;;;;;;;;;;;;;10370728;28;19923;-44
2022/04/01 00:19:16;;;;;;;;;;;;;;;;;;10370388;28;20060;-45
2022/04/01 00:24:16;;;;;;;;;;;;;;;;;;10370289;28;19920;-44
2022/04/01 00:29:16;;;;;;;;;;;;;;;;;;10370278;28;20258;-45
2022/04/01 00:34:17;;;;;;;;;;;;;;;;;;10369605;28;19996;-45
2022/04/01 00:39:19;;;;;;;;;;;;;;;;;;10369585;28;20015;-44
2022/04/01 00:44:27;;;;;;;;;;;;;;;;;;10369622;28;19995;-44
2022/04/01 00:49:28;;;;;;;;;;;;;;;;;;10369373;28;19918;-44
2022/04/01 00:54:29;;;;;;;;;;;;;;;;;;10369370;28;20296;-44
2022/04/01 00:59:30;;;;;;;;;;;;;;;;;;10369041;28;19917;-44
2022/04/01 01:04:30;;;;;;;;;;;;;;;;;;10368503;28;19963;-44
2022/04/01 01:09:31;;;;;;;;;;;;;;;;;;10368765;28;19961;-44
2022/04/01 01:14:34;;;;;;;;;;;;;;;;;;10368646;28;20101;-44
2022/04/01 01:19:35;;;;;;;;;;;;;;;;;;10368607;28;20400;-44
2022/04/01 01:24:37;;;;;;;;;;;;;;;;;;10368853;28;19924;-44
2022/04/01 01:29:39;;;;;;;;;;;;;;;;;;10367157;28;19967;-43
2022/04/01 01:34:40;;;;;;;;;;;;;;;;;;10368047;28;19968;-43
2022/04/01 01:39:41;;;;;;;;;;;;;;;;;;10368238;28;20004;-43
2022/04/01 01:44:42;;;;;;;;;;;;;;;;;;10367782;28;19917;-43
2022/04/01 01:54:42;;;;;;;;;;;;;;;;;;10367890;28;19917;-43
2022/04/01 01:55:03;;;;;;;;;;;;;;;;;;10367763;28;19920;-44
2022/04/01 02:00:10;;;;;;;;;;;;;;;;;;10367474;28;20365;-44
2022/04/01 02:05:11;;;;;;;;;;;;;;;;;;10350133;28;20196;-44
2022/04/01 02:10:11;;;;;;;;;;;;;;;;;;10367612;28;20196;-43
2022/04/01 02:15:12;;;;;;;;;;;;;;;;;;10367312;28;20006;-44
2022/04/01 02:20:13;;;;;;;;;;;;;;;;;;10366678;28;20088;-44
2022/04/01 02:25:14;;;;;;;;;;;;;;;;;;10374133;28;19917;-45
2022/04/01 02:30:14;;;;;;;;;;;;;;;;;;10374580;28;20300;-44
2022/04/01 02:35:15;;;;;;;;;;;;;;;;;;10374482;28;19924;-44
2022/04/01 02:40:16;;;;;;;;;;;;;;;;;;10374145;28;19924;-44
2022/04/01 02:45:16;;;;;;;;;;;;;;;;;;10373847;28;19960;-43
2022/04/01 02:50:17;;;;;;;;;;;;;;;;;;10373840;28;19913;-44
2022/04/01 02:55:17;;;;;;;;;;;;;;;;;;10373503;28;19924;-44
2022/04/01 03:00:21;;;;;;;;;;;;;;;;;;10373745;28;19967;-44
2022/04/01 03:05:22;;;;;;;;;;;;;;;;;;10373364;28;19940;-44
2022/04/01 03:10:23;;;;;;;;;;;;;;;;;;10355245;28;19979;-44
2022/04/01 03:15:24;;;;;;;;;;;;;;;;;;10372987;28;20437;-44
2022/04/01 03:20:25;;;;;;;;;;;;;;;;;;10372681;28;19917;-43
2022/04/01 03:25:28;;;;;;;;;;;;;;;;;;10372634;28;19925;-47
2022/04/01 03:30:29;;;;;;;;;;;;;;;;;;10372933;28;20436;-45
2022/04/01 03:35:29;;;;;;;;;;;;;;;;;;10370831;28;19921;-44
2022/04/01 03:40:30;;;;;;;;;;;;;;;;;;10371853;28;20033;-43
2022/04/01 03:45:31;;;;;;;;;;;;;;;;;;10354524;28;19953;-44
2022/04/01 03:50:33;;;;;;;;;;;;;;;;;;10371803;28;20424;-44
2022/04/01 03:55:37;;;;;;;;;;;;;;;;;;10371286;28;20389;-44
2022/04/01 04:00:40;;;;;;;;;;;;;;;;;;10371402;28;19983;-44
2022/04/01 04:05:43;;;;;;;;;;;;;;;;;;10353579;28;19918;-45
2022/04/01 04:10:46;;;;;;;;;;;;;;;;;;10354115;28;19963;-44
2022/04/01 04:16:09;;;;;;;;;;;;;;;;;;10353629;28;20365;-44
2022/04/01 04:21:20;;;;;;;;;;;;;;;;;;10370274;28;19917;-44
2022/04/01 04:26:29;;;;;;;;;;;;;;;;;;10370373;28;19936;-44
2022/04/01 04:31:30;;;;;;;;;;;;;;;;;;10370369;28;19913;-44
2022/04/01 04:36:39;;;;;;;;;;;;;;;;;;10370000;28;20383;-44
2022/04/01 04:41:39;;;;;;;;;;;;;;;;;;10369577;28;19924;-46
2022/04/01 04:46:41;;;;;;;;;;;;;;;;;;10369425;28;20281;-45
2022/04/01 04:51:42;;;;;;;;;;;;;;;;;;10351868;28;19924;-44
2022/04/01 04:56:43;;;;;;;;;;;;;;;;;;10352081;28;19917;-44
2022/04/01 05:01:59;;;;;;;;;;;;;;;;;;10350982;28;20012;-44
2022/04/01 05:07:10;;;;;;;;;;;;;;;;;;10369024;28;19940;-44
2022/04/01 05:12:23;;;;;;;;;;;;;;;;;;10369187;28;19914;-54
2022/04/01 05:17:37;;;;;;;;;;;;;;;;;;10352973;28;19913;-45
2022/04/01 05:23:18;;;;;;;;;;;;;;;;;;10368224;28;19924;-49
2022/04/01 05:28:24;;;;;;;;;;;;;;;;;;10368256;28;20003;-47
2022/04/01 05:33:26;;;;;;;;;;;;;;;;;;10367357;28;19917;-44
2022/04/01 05:38:30;;;;;;;;;;;;;;;;;;10367557;28;19967;-43
2022/04/01 05:43:31;;;;;;;;;;;;;;;;;;10351674;28;20011;-46
2022/04/01 05:48:32;;;;;;;;;;;;;;;;;;10366780;28;20173;-45
2022/04/01 05:53:34;;;;;;;;;;;;;;;;;;10357741;28;19917;-45
2022/04/01 05:58:35;;;;;;;;;;;;;;;;;;10371439;28;19921;-50
2022/04/01 06:03:59;;;;;;;;;;;;;;;;;;10374091;28;20222;-47
2022/04/01 06:09:37;;;;;;;;;;;;;;;;;;10357306;28;19960;-48
2022/04/01 06:14:52;;;;;;;;;;;;;;;;;;10368815;28;19928;-46
2022/04/01 06:19:55;;;;;;;;;;;;;;;;;;10374059;28;19961;-46
2022/04/01 06:25:11;;;;;;;;;;;;;;;;;;10355556;28;19918;-57
2022/04/01 06:30:13;;;;;;;;;;;;;;;;;;10373715;28;20013;-51
2022/04/01 06:35:26;;;;;;;;;;;;;;;;;;10374098;28;19913;-47
2022/04/01 06:40:39;;;;;;;;;;;;;;;;;;10374483;28;20157;-60
2022/04/01 06:45:42;;;;;;;;;;;;;;;;;;10357271;28;19956;-64
2022/04/01 06:50:49;;;;;;;;;;;;;;;;;;10374106;28;19921;-55
2022/04/01 06:55:50;;;;;;;;;;;;;;;;;;10357340;28;19914;-48
2022/04/01 07:00:50;;;;;;;;;;;;;;;;;;10371767;28;20417;-48
2022/04/01 07:05:51;;;;;;;;;;;;;;;;;;10373686;28;19928;-48
2022/04/01 07:10:51;;;;;;;;;;;;;;;;;;10355646;28;20396;-47
2022/04/01 07:15:52;;;;;;;;;;;;;;;;;;10372976;28;19979;-47
2022/04/01 07:20:52;;;;;;;;;;;;;;;;;;10372806;28;20061;-50
2022/04/01 07:25:52;;;;;;;;;;;;;;;;;;10373148;28;20172;-51
2022/04/01 07:30:54;;;;;;;;;;;;;;;;;;10372503;28;19967;-60
2022/04/01 07:35:54;;;;;;;;;;;;;;;;;;10372125;28;19921;-55
2022/04/01 07:40:56;;;;;;;;;;;;;;;;;;10354380;28;20011;-50
2022/04/01 07:45:57;;;;;;;;;;;;;;;;;;10372223;28;20016;-53
2022/04/01 07:50:58;;;;;;;;;;;;;;;;;;10371601;28;19992;-50
2022/04/01 07:55:58;;;;;;;;;;;;;;;;;;10372070;28;19913;-51
2022/04/01 08:00:59;;;;;;;;;;;;;;;;;;10370867;28;20000;-53
2022/04/01 08:05:59;;;;;;;;;;;;;;;;;;10396127;28;19956;-51
2022/04/01 08:11:00;;;;;;;;;;;;;;;;;;10412233;28;20360;-49
2022/04/01 08:16:01;;;;;;;;;;;;;;;;;;10404156;28;19920;-54
2022/04/01 08:21:01;;;;;;;;;;;;;;;;;;10369874;28;20076;-51
2022/04/01 08:26:02;;;;;;;;;;;;;;;;;;10370292;28;20053;-59
2022/04/01 08:31:03;;;;;;;;;;;;;;;;;;10370271;28;19956;-58
2022/04/01 08:36:04;;;;;;;;;;;;;;;;;;10377322;28;19913;-58
2022/04/01 08:41:04;;;;;;;;;;;;;;;;;;10379300;28;19918;-57
2022/04/01 08:46:07;;;;;;;;;;;;;;;;;;10369454;28;19917;-48
2022/04/01 08:51:07;;;;;;;;;;;;;;;;;;10380943;28;19986;-51
2022/04/01 08:56:08;;;;;;;;;;;;;;;;;;10373914;28;19963;-51
2022/04/01 09:01:09;;;;;;;;;;;;;;;;;;10368659;28;19924;-52
2022/04/01 09:06:09;;;;;;;;;;;;;;;;;;10392848;28;19920;-61
2022/04/01 09:11:18;;;;;;;;;;;;;;;;;;10378284;28;20004;-54
2022/04/01 09:16:27;;;;;;;;;;;;;;;;;;10375797;28;20334;-52
2022/04/01 09:21:30;;;;;;;;;;;;;;;;;;10368527;28;20268;-50
2022/04/01 09:26:33;;;;;;;;;;;;;;;;;;10367547;28;19957;-46
2022/04/01 09:31:37;;;;;;;;;;;;;;;;;;10368144;28;20020;-61
2022/04/01 09:36:39;;;;;;;;;;;;;;;;;;10368172;28;19917;-46
2022/04/01 09:41:46;;;;;;;;;;;;;;;;;;10367366;28;19948;-50
2022/04/01 09:46:48;;;;;;;;;;;;;;;;;;10389776;28;20451;-50
2022/04/01 09:51:49;;;;;;;;;;;;;;;;;;10350011;28;20004;-55
2022/04/01 09:56:54;;;;;;;;;;;;;;;;;;10388906;28;20012;-47
2022/04/01 10:01:55;;;;;;;;;;;;;;;;;;10408335;28;20418;-47
2022/04/01 10:06:55;;;;;;;;;;;;;;;;;;10404365;28;19917;-52
2022/04/01 10:12:01;;;;;;;;;;;;;;;;;;10349309;28;20388;-62
2022/04/01 10:17:03;;;;;;;;;;;;;;;;;;10349437;28;19918;-62
2022/04/01 10:22:05;;;;;;;;;;;;;;;;;;10364323;28;20284;-57
2022/04/01 10:27:14;;;;;;;;;;;;;;;;;;10407957;28;19928;-59
2022/04/01 10:32:28;;;;;;;;;;;;;;;;;;10391427;28;20026;-61
2022/04/01 10:37:31;;;;;;;;;;;;;;;;;;10328132;28;19914;-62
2022/04/01 10:42:38;;;;;;;;;;;;;;;;;;10367805;28;19960;-62
2022/04/01 10:53:37;;;;;;;;;;;;;;;;;;10373703;28;19917;-58
2022/04/01 10:58:37;;;;;;;;;;;;;;;;;;10373809;28;19967;-59
2022/04/01 11:03:38;;;;;;;;;;;;;;;;;;10373865;28;20004;-62
2022/04/01 11:08:52;;;;;;;;;;;;;;;;;;10373271;28;20399;-59
2022/04/01 11:14:06;;;;;;;;;;;;;;;;;;10373824;28;19917;-58
2022/04/01 11:19:17;;;;;;;;;;;;;;;;;;10372937;28;19921;-53
2022/04/01 11:24:29;;;;;;;;;;;;;;;;;;10359632;28;19917;-60
2022/04/01 11:29:30;;;;;;;;;;;;;;;;;;10372714;28;19913;-49
2022/04/01 11:34:31;;;;;;;;;;;;;;;;;;10372240;28;19951;-49
2022/04/01 11:39:31;;;;;;;;;;;;;;;;;;10371646;28;19932;-53
2022/04/01 11:44:32;;;;;;;;;;;;;;;;;;10371317;28;19917;-52
2022/04/01 11:49:32;;;;;;;;;;;;;;;;;;10371334;28;19921;-53
2022/04/01 11:54:34;;;;;;;;;;;;;;;;;;10370231;28;19936;-49
2022/04/01 11:59:34;;;;;;;;;;;;;;;;;;10371390;28;19920;-53
2022/04/01 12:04:35;;;;;;;;;;;;;;;;;;10370645;28;19927;-56
2022/04/01 12:09:35;;;;;;;;;;;;;;;;;;10367940;28;20512;-49
2022/04/01 12:14:38;;;;;;;;;;;;;;;;;;10367729;28;20428;-56
2022/04/01 12:19:38;;;;;;;;;;;;;;;;;;10367638;28;19922;-52
2022/04/01 12:24:39;;;;;;;;;;;;;;;;;;10366471;28;19918;-50
2022/04/01 12:29:43;;;;;;;;;;;;;;;;;;10366108;28;19917;-51
2022/04/01 12:34:46;;;;;;;;;;;;;;;;;;10365429;28;19921;-51
2022/04/01 12:39:56;;;;;;;;;;;;;;;;;;10373054;28;19921;-57
2022/04/01 12:44:56;;;;;;;;;;;;;;;;;;10367766;28;20364;-53
2022/04/01 12:49:57;;;;;;;;;;;;;;;;;;10367483;28;20004;-59
2022/04/01 12:55:01;;;;;;;;;;;;;;;;;;10367358;28;19913;-51
2022/04/01 13:00:13;;;;;;;;;;;;;;;;;;10366870;28;19959;-51
2022/04/01 13:05:13;;;;;;;;;;;;;;;;;;10366182;28;19917;-49
2022/04/01 13:10:15;;;;;;;;;;;;;;;;;;10366852;28;19914;-58
2022/04/01 13:15:18;;;;;;;;;;;;;;;;;;10364859;28;19925;-51
2022/04/01 13:20:32;;;;;;;;;;;;;;;;;;10366943;28;20440;-50
2022/04/01 13:25:33;;;;;;;;;;;;;;;;;;10364849;28;19917;-52
2022/04/01 13:30:34;;;;;;;;;;;;;;;;;;10368267;28;19924;-46
2022/04/01 13:35:34;;;;;;;;;;;;;;;;;;10368226;28;19921;-50
2022/04/01 13:40:35;;;;;;;;;;;;;;;;;;10365312;28;20099;-51
2022/04/01 13:45:39;;;;;;;;;;;;;;;;;;10368089;28;19959;-47
2022/04/01 13:50:40;;;;;;;;;;;;;;;;;;10365604;28;20300;-53
2022/04/01 13:55:41;;;;;;;;;;;;;;;;;;10367215;28;19918;-50
2022/04/01 14:00:42;;;;;;;;;;;;;;;;;;10367096;28;19917;-47
2022/04/01 14:05:42;;;;;;;;;;;;;;;;;;10367183;28;20154;-51
2022/04/01 14:10:42;;;;;;;;;;;;;;;;;;10367374;28;20020;-46
2022/04/01 14:16:03;;;;;;;;;;;;;;;;;;10367852;28;19920;-46
2022/04/01 14:21:06;;;;;;;;;;;;;;;;;;10245632;28;19925;-58
2022/04/01 14:26:06;;;;;;;;;;;;;;;;;;10248332;28;19918;-49
2022/04/01 14:31:07;;;;;;;;;;;;;;;;;;10247715;29;20012;-50
2022/04/01 14:36:08;;;;;;;;;;;;;;;;;;10246573;29;20013;-61
2022/04/01 14:41:11;;;;;;;;;;;;;;;;;;10278625;28;19917;-46
2022/04/01 14:46:11;;;;;;;;;;;;;;;;;;10287370;28;19918;-45
2022/04/01 14:51:12;;;;;;;;;;;;;;;;;;10256496;28;19922;-46
2022/04/01 14:56:12;;;;;;;;;;;;;;;;;;10292645;28;19967;-45
2022/04/01 15:01:13;;;;;;;;;;;;;;;;;;10373883;28;19914;-50
2022/04/01 15:06:13;;;;;;;;;;;;;;;;;;10372863;28;20003;-46
2022/04/01 15:11:14;;;;;;;;;;;;;;;;;;10375103;28;20008;-50
2022/04/01 15:16:14;;;;;;;;;;;;;;;;;;10370801;28;20223;-49
2022/04/01 15:21:15;;;;;;;;;;;;;;;;;;10370109;28;20108;-45
2022/04/01 15:26:16;;;;;;;;;;;;;;;;;;10356835;28;20008;-45
2022/04/01 15:31:16;;;;;;;;;;;;;;;;;;10364820;28;19921;-46
2022/04/01 15:36:21;;;;;;;;;;;;;;;;;;10372126;28;19926;-45
2022/04/01 15:41:25;;;;;;;;;;;;;;;;;;10371962;28;19925;-46
2022/04/01 15:46:31;;;;;;;;;;;;;;;;;;10372127;28;19957;-45
2022/04/01 15:51:32;;;;;;;;;;;;;;;;;;10371615;28;19921;-51
2022/04/01 15:56:33;;;;;;;;;;;;;;;;;;10368367;28;20572;-49
2022/04/01 16:01:37;;;;;;;;;;;;;;;;;;10378027;28;19920;-47
2022/04/01 16:06:39;;;;;;;;;;;;;;;;;;10376014;28;19913;-49
2022/04/01 16:11:39;;;;;;;;;;;;;;;;;;10394493;28;19925;-47
2022/04/01 16:16:40;;;;;;;;;;;;;;;;;;10410092;28;20000;-49
2022/04/01 16:21:41;;;;;;;;;;;;;;;;;;10394498;28;20161;-48
2022/04/01 16:26:41;;;;;;;;;;;;;;;;;;10394034;28;20431;-46
2022/04/01 16:31:42;;;;;;;;;;;;;;;;;;10386175;28;20453;-50
2022/04/01 16:36:42;;;;;;;;;;;;;;;;;;10369398;28;20281;-46
2022/04/01 16:41:43;;;;;;;;;;;;;;;;;;10367299;28;19921;-51
2022/04/01 16:46:43;;;;;;;;;;;;;;;;;;10369168;28;19917;-43
2022/04/01 16:51:43;;;;;;;;;;;;;;;;;;10376109;28;19921;-44
2022/04/01 16:56:44;;;;;;;;;;;;;;;;;;10379509;28;20015;-44
2022/04/01 17:01:45;;;;;;;;;;;;;;;;;;10366031;28;19917;-44
2022/04/01 17:17:24;;;;;;;;;;;;;;;;;;10366445;28;20377;-43
2022/04/01 17:22:25;;;;;;;;;;;;;;;;;;10368305;28;20373;-51
2022/04/01 17:27:26;;;;;;;;;;;;;;;;;;10367933;28;19925;-43
2022/04/01 17:32:29;;;;;;;;;;;;;;;;;;10368063;28;19917;-43
2022/04/01 17:37:30;;;;;;;;;;;;;;;;;;10368355;28;19913;-43
2022/04/01 17:42:31;;;;;;;;;;;;;;;;;;10366252;28;20272;-43
2022/04/01 17:47:31;;;;;;;;;;;;;;;;;;10364333;28;19924;-44
2022/04/01 17:52:32;;;;;;;;;;;;;;;;;;10375795;28;19963;-43
2022/04/01 17:57:35;;;;;;;;;;;;;;;;;;10372852;28;19926;-43
2022/04/01 18:02:37;;;;;;;;;;;;;;;;;;10362449;28;19928;-44
2022/04/01 18:07:43;;;;;;;;;;;;;;;;;;10367535;28;19918;-43
2022/04/01 18:12:44;;;;;;;;;;;;;;;;;;10371807;28;20399;-45
2022/04/01 18:17:44;;;;;;;;;;;;;;;;;;10366711;28;19929;-46
2022/04/01 18:22:45;;;;;;;;;;;;;;;;;;10371102;28;19917;-45
2022/04/01 18:28:05;;;;;;;;;;;;;;;;;;10370364;28;19932;-47
2022/04/01 18:33:06;;;;;;;;;;;;;;;;;;10369687;28;20382;-45
2022/04/01 18:38:10;;;;;;;;;;;;;;;;;;10366734;28;20047;-45
2022/04/01 18:43:12;;;;;;;;;;;;;;;;;;10369543;28;20229;-45
2022/04/01 18:48:13;;;;;;;;;;;;;;;;;;10364955;28;20008;-46
2022/04/01 18:53:14;;;;;;;;;;;;;;;;;;10371585;28;19971;-45
2022/04/01 18:58:14;;;;;;;;;;;;;;;;;;10368864;28;20035;-45
2022/04/01 19:03:20;;;;;;;;;;;;;;;;;;10370362;28;20366;-45
2022/04/01 19:08:42;;;;;;;;;;;;;;;;;;10370912;28;19917;-45
2022/04/01 19:13:45;;;;;;;;;;;;;;;;;;10372097;28;19996;-45
2022/04/01 19:18:47;;;;;;;;;;;;;;;;;;10371509;28;19933;-45
2022/04/01 19:23:49;;;;;;;;;;;;;;;;;;10370410;28;19926;-45
2022/04/01 19:28:49;;;;;;;;;;;;;;;;;;10370422;28;19999;-46
2022/04/01 19:33:50;;;;;;;;;;;;;;;;;;10372226;28;19960;-46
2022/04/01 19:38:50;;;;;;;;;;;;;;;;;;10372041;28;20004;-45
2022/04/01 19:43:51;;;;;;;;;;;;;;;;;;10372170;28;19918;-45
2022/04/01 19:48:52;;;;;;;;;;;;;;;;;;10371591;28;19920;-45
2022/04/01 20:08:48;;;;;;;;;;;;;;;;;;10449654;27;19968;-59
2022/04/01 20:13:48;;;;;;;;;;;;;;;;;;10443823;28;19921;-60
2022/04/01 20:18:49;;;;;;;;;;;;;;;;;;10443588;28;19917;-60
2022/04/01 20:23:49;;;;;;;;;;;;;;;;;;10414779;28;20287;-60
2022/04/01 20:28:54;;;;;;;;;;;;;;;;;;10400107;28;19921;-60
2022/04/01 20:33:54;;;;;;;;;;;;;;;;;;10403795;28;20340;-60
2022/04/01 20:38:54;;;;;;;;;;;;;;;;;;10399509;28;19929;-61
2022/04/01 20:43:55;;;;;;;;;;;;;;;;;;10403079;28;19917;-60
2022/04/01 20:48:55;;;;;;;;;;;;;;;;;;10401588;28;19917;-60
2022/04/01 20:53:56;;;;;;;;;;;;;;;;;;10401364;28;19922;-60
2022/04/01 20:58:57;;;;;;;;;;;;;;;;;;10437315;28;19921;-60
2022/04/01 21:03:57;;;;;;;;;;;;;;;;;;10441883;28;19917;-60
2022/04/01 21:08:58;;;;;;;;;;;;;;;;;;10417697;28;19925;-59
2022/04/01 21:13:59;;;;;;;;;;;;;;;;;;10414039;28;19924;-59
2022/04/01 21:19:00;;;;;;;;;;;;;;;;;;10404456;28;19968;-59
2022/04/01 21:24:00;;;;;;;;;;;;;;;;;;10369897;28;20052;-59
2022/04/01 21:29:01;;;;;;;;;;;;;;;;;;10393404;28;19975;-59
2022/04/01 21:34:01;;;;;;;;;;;;;;;;;;10402358;28;20352;-60
2022/04/01 21:39:03;;;;;;;;;;;;;;;;;;10401957;28;19922;-60
2022/04/01 21:44:04;;;;;;;;;;;;;;;;;;10405829;28;19928;-59
2022/04/01 21:49:04;;;;;;;;;;;;;;;;;;10410895;28;19921;-60
2022/04/01 21:54:05;;;;;;;;;;;;;;;;;;10410627;28;19921;-60
2022/04/01 21:59:05;;;;;;;;;;;;;;;;;;10411750;28;19921;-60
2022/04/01 22:04:06;;;;;;;;;;;;;;;;;;10409640;28;19921;-60
2022/04/01 22:09:06;;;;;;;;;;;;;;;;;;10409447;28;19925;-59
2022/04/01 22:14:08;;;;;;;;;;;;;;;;;;10409225;28;19917;-60
2022/04/01 22:19:09;;;;;;;;;;;;;;;;;;10410165;28;19925;-60
2022/04/01 22:24:11;;;;;;;;;;;;;;;;;;10404568;28;19929;-59
2022/04/01 22:29:12;;;;;;;;;;;;;;;;;;10404301;28;19974;-58
2022/04/01 22:34:16;;;;;;;;;;;;;;;;;;10377363;28;19929;-54
2022/04/01 22:39:16;;;;;;;;;;;;;;;;;;10368570;28;19925;-60
2022/04/01 22:44:17;;;;;;;;;;;;;;;;;;10388185;28;20071;-58
2022/04/01 22:49:18;;;;;;;;;;;;;;;;;;10408596;28;19920;-60
2022/04/01 22:54:19;;;;;;;;;;;;;;;;;;10410026;28;20380;-57
2022/04/01 22:59:19;;;;;;;;;;;;;;;;;;10408344;28;19921;-58
2022/04/01 23:04:20;;;;;;;;;;;;;;;;;;10403126;28;20283;-58
2022/04/01 23:09:20;;;;;;;;;;;;;;;;;;10409495;28;19928;-59
2022/04/01 23:14:22;;;;;;;;;;;;;;;;;;10407564;28;19921;-57
2022/04/01 23:19:22;;;;;;;;;;;;;;;;;;10409287;28;19920;-58
2022/04/01 23:24:23;;;;;;;;;;;;;;;;;;10409070;28;19971;-57
2022/04/01 23:29:25;;;;;;;;;;;;;;;;;;10408981;28;19952;-57
2022/04/01 23:34:26;;;;;;;;;;;;;;;;;;10408698;28;19941;-57
2022/04/01 23:39:27;;;;;;;;;;;;;;;;;;10408982;28;20012;-57
2022/04/01 23:44:27;;;;;;;;;;;;;;;;;;10408447;28;19927;-58
2022/04/01 23:49:28;;;;;;;;;;;;;;;;;;10408146;28;20011;-57
2022/04/01 23:54:28;;;;;;;;;;;;;;;;;;10408147;28;19922;-58
2022/04/01 23:59:29;;;;;;;;;;;;;;;;;;10408453;28;20019;-57
